Hyderabad, Pakistan
Current Conditions -  °F | °C
As of 3:00 AM on Tuesday 23 Dec 2014 (Local Time) from OPNH Reporting Station
Haze Haze  
Wind Chill: 46°   Ceiling: Unl
Heat Index: 46°   Visibility: 0.62mi
Dew Point: 45°   Wind: 0mph
Humidity: 93%   Direction: NA
Pressure: 29.91"   Gusts: NA
Location:  25.38°N, 68.37°E
Report Text: OPNH 222200Z 00000KT 1000M BR NSC 08/07 Q1013
Loading
Personal Weather Stations






























Interactive Weather Map New forecast layout! Learn more

10-Day Weather Forecast

Advertisements
Track Severe Weather on mobile